sensor_id;sensor_type;location;lat;lon;timestamp;P1;durP1;ratioP1;P2;durP2;ratioP2
76065;SDS011;64763;48.928;8.474;2023-02-28T00:00:23;5.30;;;3.13;;
76065;SDS011;64763;48.928;8.474;2023-02-28T00:05:15;6.00;;;3.00;;
76065;SDS011;64763;48.928;8.474;2023-02-28T00:07:43;5.30;;;2.67;;
76065;SDS011;64763;48.928;8.474;2023-02-28T00:12:38;5.00;;;3.10;;
76065;SDS011;64763;48.928;8.474;2023-02-28T00:17:36;5.32;;;3.03;;
76065;SDS011;64763;48.928;8.474;2023-02-28T00:20:02;5.78;;;3.22;;
76065;SDS011;64763;48.928;8.474;2023-02-28T00:22:41;6.22;;;3.45;;
76065;SDS011;64763;48.928;8.474;2023-02-28T00:25:08;6.00;;;2.97;;
76065;SDS011;64763;48.928;8.474;2023-02-28T00:27:35;5.97;;;3.22;;
76065;SDS011;64763;48.928;8.474;2023-02-28T00:30:01;4.97;;;3.55;;
76065;SDS011;64763;48.928;8.474;2023-02-28T00:34:51;10.67;;;3.20;;
76065;SDS011;64763;48.928;8.474;2023-02-28T00:39:42;5.43;;;2.80;;
76065;SDS011;64763;48.928;8.474;2023-02-28T00:44:33;4.43;;;2.95;;
76065;SDS011;64763;48.928;8.474;2023-02-28T00:49:24;4.70;;;3.00;;
76065;SDS011;64763;48.928;8.474;2023-02-28T00:51:50;5.68;;;3.08;;
76065;SDS011;64763;48.928;8.474;2023-02-28T00:56:41;5.00;;;2.92;;
76065;SDS011;64763;48.928;8.474;2023-02-28T01:01:31;6.90;;;3.20;;
76065;SDS011;64763;48.928;8.474;2023-02-28T01:06:22;5.90;;;3.07;;
76065;SDS011;64763;48.928;8.474;2023-02-28T01:11:14;4.67;;;2.77;;
76065;SDS011;64763;48.928;8.474;2023-02-28T01:13:41;5.82;;;2.97;;
76065;SDS011;64763;48.928;8.474;2023-02-28T01:16:06;14.07;;;7.22;;
76065;SDS011;64763;48.928;8.474;2023-02-28T01:20:57;6.07;;;3.43;;
76065;SDS011;64763;48.928;8.474;2023-02-28T01:25:49;4.95;;;2.90;;
76065;SDS011;64763;48.928;8.474;2023-02-28T01:28:17;6.80;;;3.50;;
76065;SDS011;64763;48.928;8.474;2023-02-28T01:33:07;6.03;;;2.90;;
76065;SDS011;64763;48.928;8.474;2023-02-28T01:37:59;5.45;;;3.13;;
76065;SDS011;64763;48.928;8.474;2023-02-28T01:42:49;5.03;;;3.10;;
76065;SDS011;64763;48.928;8.474;2023-02-28T01:47:43;6.13;;;3.03;;
76065;SDS011;64763;48.928;8.474;2023-02-28T01:52:40;6.47;;;3.25;;
76065;SDS011;64763;48.928;8.474;2023-02-28T01:55:07;5.93;;;2.70;;
76065;SDS011;64763;48.928;8.474;2023-02-28T01:57:38;6.63;;;3.45;;
76065;SDS011;64763;48.928;8.474;2023-02-28T02:02:34;6.65;;;3.00;;
76065;SDS011;64763;48.928;8.474;2023-02-28T02:05:09;7.75;;;3.30;;
76065;SDS011;64763;48.928;8.474;2023-02-28T02:07:39;5.05;;;3.17;;
76065;SDS011;64763;48.928;8.474;2023-02-28T02:12:50;4.50;;;2.90;;
76065;SDS011;64763;48.928;8.474;2023-02-28T02:15:31;5.40;;;3.13;;
76065;SDS011;64763;48.928;8.474;2023-02-28T02:18:02;7.25;;;3.08;;
76065;SDS011;64763;48.928;8.474;2023-02-28T02:20:51;6.03;;;3.47;;
76065;SDS011;64763;48.928;8.474;2023-02-28T02:37:02;6.00;;;3.15;;
76065;SDS011;64763;48.928;8.474;2023-02-28T02:39:40;5.60;;;3.33;;
76065;SDS011;64763;48.928;8.474;2023-02-28T02:42:15;5.20;;;3.33;;
76065;SDS011;64763;48.928;8.474;2023-02-28T02:44:46;5.65;;;3.60;;
76065;SDS011;64763;48.928;8.474;2023-02-28T02:47:16;2.97;;;1.98;;
76065;SDS011;64763;48.928;8.474;2023-02-28T02:49:45;7.80;;;3.75;;
76065;SDS011;64763;48.928;8.474;2023-02-28T02:52:15;7.07;;;3.55;;
76065;SDS011;64763;48.928;8.474;2023-02-28T02:54:44;6.40;;;3.15;;
76065;SDS011;64763;48.928;8.474;2023-02-28T02:57:11;5.65;;;3.40;;
76065;SDS011;64763;48.928;8.474;2023-02-28T02:59:42;5.60;;;3.75;;
76065;SDS011;64763;48.928;8.474;2023-02-28T03:02:10;6.63;;;3.80;;
76065;SDS011;64763;48.928;8.474;2023-02-28T03:04:53;6.43;;;3.65;;
76065;SDS011;64763;48.928;8.474;2023-02-28T03:07:25;5.63;;;3.67;;
76065;SDS011;64763;48.928;8.474;2023-02-28T03:12:17;6.28;;;3.60;;
76065;SDS011;64763;48.928;8.474;2023-02-28T03:14:52;6.75;;;3.65;;
76065;SDS011;64763;48.928;8.474;2023-02-28T03:17:30;5.97;;;3.50;;
76065;SDS011;64763;48.928;8.474;2023-02-28T03:25:59;5.07;;;3.53;;
76065;SDS011;64763;48.928;8.474;2023-02-28T03:33:46;4.82;;;3.47;;
76065;SDS011;64763;48.928;8.474;2023-02-28T03:36:19;8.75;;;2.88;;
76065;SDS011;64763;48.928;8.474;2023-02-28T03:38:52;6.97;;;4.13;;
76065;SDS011;64763;48.928;8.474;2023-02-28T03:41:21;8.82;;;4.10;;
76065;SDS011;64763;48.928;8.474;2023-02-28T03:43:53;6.43;;;3.80;;
76065;SDS011;64763;48.928;8.474;2023-02-28T03:46:21;5.63;;;3.78;;
76065;SDS011;64763;48.928;8.474;2023-02-28T03:48:51;8.02;;;3.65;;
76065;SDS011;64763;48.928;8.474;2023-02-28T03:51:24;8.82;;;4.43;;
76065;SDS011;64763;48.928;8.474;2023-02-28T03:53:51;8.18;;;4.30;;
76065;SDS011;64763;48.928;8.474;2023-02-28T03:56:19;5.93;;;3.65;;
76065;SDS011;64763;48.928;8.474;2023-02-28T03:59:16;7.25;;;3.80;;
76065;SDS011;64763;48.928;8.474;2023-02-28T04:01:46;6.82;;;3.97;;
76065;SDS011;64763;48.928;8.474;2023-02-28T04:04:13;10.18;;;3.92;;
76065;SDS011;64763;48.928;8.474;2023-02-28T04:06:40;6.00;;;3.33;;
76065;SDS011;64763;48.928;8.474;2023-02-28T04:09:09;6.78;;;3.60;;
76065;SDS011;64763;48.928;8.474;2023-02-28T04:11:36;7.57;;;4.20;;
76065;SDS011;64763;48.928;8.474;2023-02-28T04:14:03;7.45;;;3.55;;
76065;SDS011;64763;48.928;8.474;2023-02-28T04:16:29;5.15;;;3.40;;
76065;SDS011;64763;48.928;8.474;2023-02-28T04:18:55;7.32;;;3.63;;
76065;SDS011;64763;48.928;8.474;2023-02-28T04:21:27;7.47;;;4.03;;
76065;SDS011;64763;48.928;8.474;2023-02-28T04:24:07;7.20;;;3.92;;
76065;SDS011;64763;48.928;8.474;2023-02-28T04:26:34;8.05;;;3.85;;
76065;SDS011;64763;48.928;8.474;2023-02-28T04:29:01;6.82;;;4.35;;
76065;SDS011;64763;48.928;8.474;2023-02-28T04:31:27;7.10;;;4.03;;
76065;SDS011;64763;48.928;8.474;2023-02-28T04:33:53;8.40;;;3.95;;
76065;SDS011;64763;48.928;8.474;2023-02-28T04:38:44;5.93;;;3.60;;
76065;SDS011;64763;48.928;8.474;2023-02-28T04:41:10;7.10;;;4.20;;
76065;SDS011;64763;48.928;8.474;2023-02-28T04:46:02;7.10;;;3.50;;
76065;SDS011;64763;48.928;8.474;2023-02-28T04:48:29;7.82;;;4.15;;
76065;SDS011;64763;48.928;8.474;2023-02-28T04:50:59;7.53;;;4.32;;
76065;SDS011;64763;48.928;8.474;2023-02-28T04:53:28;5.53;;;3.60;;
76065;SDS011;64763;48.928;8.474;2023-02-28T04:58:19;8.25;;;3.50;;
76065;SDS011;64763;48.928;8.474;2023-02-28T05:00:48;8.52;;;4.20;;
76065;SDS011;64763;48.928;8.474;2023-02-28T05:03:13;8.27;;;4.07;;
76065;SDS011;64763;48.928;8.474;2023-02-28T05:08:04;5.50;;;3.33;;
76065;SDS011;64763;48.928;8.474;2023-02-28T05:12:55;8.53;;;4.20;;
76065;SDS011;64763;48.928;8.474;2023-02-28T05:17:46;6.50;;;3.93;;
76065;SDS011;64763;48.928;8.474;2023-02-28T05:20:11;9.38;;;4.72;;
76065;SDS011;64763;48.928;8.474;2023-02-28T05:22:38;8.88;;;4.60;;
76065;SDS011;64763;48.928;8.474;2023-02-28T05:25:04;7.25;;;4.20;;
76065;SDS011;64763;48.928;8.474;2023-02-28T05:27:30;7.82;;;3.90;;
76065;SDS011;64763;48.928;8.474;2023-02-28T05:32:21;7.40;;;4.50;;
76065;SDS011;64763;48.928;8.474;2023-02-28T05:34:46;7.95;;;4.47;;
76065;SDS011;64763;48.928;8.474;2023-02-28T05:37:12;9.23;;;4.85;;
76065;SDS011;64763;48.928;8.474;2023-02-28T05:39:38;7.43;;;3.75;;
76065;SDS011;64763;48.928;8.474;2023-02-28T05:42:04;7.75;;;4.55;;
76065;SDS011;64763;48.928;8.474;2023-02-28T05:44:29;9.63;;;4.57;;
76065;SDS011;64763;48.928;8.474;2023-02-28T05:49:20;7.43;;;4.27;;
76065;SDS011;64763;48.928;8.474;2023-02-28T05:54:11;7.20;;;3.90;;
76065;SDS011;64763;48.928;8.474;2023-02-28T05:56:36;8.65;;;4.70;;
76065;SDS011;64763;48.928;8.474;2023-02-28T05:59:04;10.77;;;4.85;;
76065;SDS011;64763;48.928;8.474;2023-02-28T06:03:57;9.13;;;4.30;;
76065;SDS011;64763;48.928;8.474;2023-02-28T06:06:26;7.75;;;4.05;;
76065;SDS011;64763;48.928;8.474;2023-02-28T06:11:16;9.13;;;4.67;;
76065;SDS011;64763;48.928;8.474;2023-02-28T06:16:08;7.90;;;4.10;;
76065;SDS011;64763;48.928;8.474;2023-02-28T06:18:35;10.88;;;4.70;;
76065;SDS011;64763;48.928;8.474;2023-02-28T06:23:26;8.93;;;4.53;;
76065;SDS011;64763;48.928;8.474;2023-02-28T06:28:18;7.53;;;4.05;;
76065;SDS011;64763;48.928;8.474;2023-02-28T06:33:09;5.88;;;3.97;;
76065;SDS011;64763;48.928;8.474;2023-02-28T06:38:00;7.38;;;3.63;;
76065;SDS011;64763;48.928;8.474;2023-02-28T06:40:25;7.47;;;4.53;;
76065;SDS011;64763;48.928;8.474;2023-02-28T06:45:15;7.90;;;3.50;;
76065;SDS011;64763;48.928;8.474;2023-02-28T06:50:07;8.63;;;3.90;;
76065;SDS011;64763;48.928;8.474;2023-02-28T06:52:34;8.55;;;4.35;;
76065;SDS011;64763;48.928;8.474;2023-02-28T06:55:02;6.32;;;4.15;;
76065;SDS011;64763;48.928;8.474;2023-02-28T06:57:29;10.60;;;4.07;;
76065;SDS011;64763;48.928;8.474;2023-02-28T06:59:56;7.78;;;4.00;;
76065;SDS011;64763;48.928;8.474;2023-02-28T07:02:23;8.55;;;4.22;;
76065;SDS011;64763;48.928;8.474;2023-02-28T07:07:16;7.97;;;4.30;;
76065;SDS011;64763;48.928;8.474;2023-02-28T07:09:41;7.32;;;4.13;;
76065;SDS011;64763;48.928;8.474;2023-02-28T07:14:32;10.10;;;4.13;;
76065;SDS011;64763;48.928;8.474;2023-02-28T07:19:22;6.60;;;3.23;;
76065;SDS011;64763;48.928;8.474;2023-02-28T07:24:13;6.27;;;3.40;;
76065;SDS011;64763;48.928;8.474;2023-02-28T07:26:40;7.80;;;4.30;;
76065;SDS011;64763;48.928;8.474;2023-02-28T07:31:31;7.40;;;4.07;;
76065;SDS011;64763;48.928;8.474;2023-02-28T07:36:22;9.70;;;4.78;;
76065;SDS011;64763;48.928;8.474;2023-02-28T07:41:18;9.00;;;4.22;;
76065;SDS011;64763;48.928;8.474;2023-02-28T07:43:44;7.35;;;4.35;;
76065;SDS011;64763;48.928;8.474;2023-02-28T07:48:36;6.20;;;3.42;;
76065;SDS011;64763;48.928;8.474;2023-02-28T07:53:27;11.95;;;4.82;;
76065;SDS011;64763;48.928;8.474;2023-02-28T07:58:22;9.38;;;4.47;;
76065;SDS011;64763;48.928;8.474;2023-02-28T08:00:53;9.93;;;4.65;;
76065;SDS011;64763;48.928;8.474;2023-02-28T08:05:45;8.45;;;4.68;;
76065;SDS011;64763;48.928;8.474;2023-02-28T08:10:36;8.97;;;4.73;;
76065;SDS011;64763;48.928;8.474;2023-02-28T08:13:01;10.55;;;4.85;;
76065;SDS011;64763;48.928;8.474;2023-02-28T08:17:52;7.90;;;4.30;;
76065;SDS011;64763;48.928;8.474;2023-02-28T08:20:17;11.43;;;5.32;;
76065;SDS011;64763;48.928;8.474;2023-02-28T08:25:08;6.67;;;4.23;;
76065;SDS011;64763;48.928;8.474;2023-02-28T08:27:34;8.55;;;4.85;;
76065;SDS011;64763;48.928;8.474;2023-02-28T08:29:59;12.48;;;4.88;;
76065;SDS011;64763;48.928;8.474;2023-02-28T08:32:25;10.05;;;5.05;;
76065;SDS011;64763;48.928;8.474;2023-02-28T08:34:50;11.13;;;5.90;;
76065;SDS011;64763;48.928;8.474;2023-02-28T08:37:16;9.43;;;4.80;;
76065;SDS011;64763;48.928;8.474;2023-02-28T08:39:41;8.02;;;5.15;;
76065;SDS011;64763;48.928;8.474;2023-02-28T08:42:07;8.88;;;5.05;;
76065;SDS011;64763;48.928;8.474;2023-02-28T08:44:32;9.45;;;5.05;;
76065;SDS011;64763;48.928;8.474;2023-02-28T08:46:57;7.95;;;4.63;;
76065;SDS011;64763;48.928;8.474;2023-02-28T08:49:23;9.93;;;5.10;;
76065;SDS011;64763;48.928;8.474;2023-02-28T08:51:48;12.07;;;5.57;;
76065;SDS011;64763;48.928;8.474;2023-02-28T08:54:13;8.23;;;4.90;;
76065;SDS011;64763;48.928;8.474;2023-02-28T08:56:44;9.32;;;4.93;;
76065;SDS011;64763;48.928;8.474;2023-02-28T08:59:09;9.63;;;5.13;;
76065;SDS011;64763;48.928;8.474;2023-02-28T09:01:35;10.85;;;4.57;;
76065;SDS011;64763;48.928;8.474;2023-02-28T09:04:01;8.15;;;5.05;;
76065;SDS011;64763;48.928;8.474;2023-02-28T09:06:27;9.35;;;5.93;;
76065;SDS011;64763;48.928;8.474;2023-02-28T09:08:53;9.95;;;6.00;;
76065;SDS011;64763;48.928;8.474;2023-02-28T09:11:23;8.13;;;4.68;;
76065;SDS011;64763;48.928;8.474;2023-02-28T09:13:48;8.70;;;5.13;;
76065;SDS011;64763;48.928;8.474;2023-02-28T09:16:14;11.82;;;5.80;;
76065;SDS011;64763;48.928;8.474;2023-02-28T09:18:41;10.43;;;5.55;;
76065;SDS011;64763;48.928;8.474;2023-02-28T09:21:07;9.55;;;5.45;;
76065;SDS011;64763;48.928;8.474;2023-02-28T09:23:34;8.95;;;5.82;;
76065;SDS011;64763;48.928;8.474;2023-02-28T09:25:59;9.63;;;5.47;;
76065;SDS011;64763;48.928;8.474;2023-02-28T09:28:25;8.85;;;5.15;;
76065;SDS011;64763;48.928;8.474;2023-02-28T09:30:51;8.80;;;5.15;;
76065;SDS011;64763;48.928;8.474;2023-02-28T09:33:19;11.68;;;5.28;;
76065;SDS011;64763;48.928;8.474;2023-02-28T09:35:46;11.38;;;6.05;;
76065;SDS011;64763;48.928;8.474;2023-02-28T09:38:12;11.52;;;5.40;;
76065;SDS011;64763;48.928;8.474;2023-02-28T09:40:49;8.50;;;5.65;;
76065;SDS011;64763;48.928;8.474;2023-02-28T09:45:42;7.28;;;4.40;;
76065;SDS011;64763;48.928;8.474;2023-02-28T09:48:14;9.52;;;5.40;;
76065;SDS011;64763;48.928;8.474;2023-02-28T09:50:41;11.05;;;6.55;;
76065;SDS011;64763;48.928;8.474;2023-02-28T09:53:19;9.90;;;5.65;;
76065;SDS011;64763;48.928;8.474;2023-02-28T09:55:57;11.68;;;5.97;;
76065;SDS011;64763;48.928;8.474;2023-02-28T09:58:47;8.00;;;5.22;;
76065;SDS011;64763;48.928;8.474;2023-02-28T10:01:19;10.95;;;5.95;;
76065;SDS011;64763;48.928;8.474;2023-02-28T10:03:51;9.20;;;5.60;;
76065;SDS011;64763;48.928;8.474;2023-02-28T10:06:26;11.25;;;6.22;;
76065;SDS011;64763;48.928;8.474;2023-02-28T10:08:56;11.57;;;6.13;;
76065;SDS011;64763;48.928;8.474;2023-02-28T10:11:26;8.98;;;5.07;;
76065;SDS011;64763;48.928;8.474;2023-02-28T10:16:45;12.07;;;6.20;;
76065;SDS011;64763;48.928;8.474;2023-02-28T10:19:35;10.43;;;5.72;;
76065;SDS011;64763;48.928;8.474;2023-02-28T10:22:11;13.32;;;6.78;;
76065;SDS011;64763;48.928;8.474;2023-02-28T10:24:46;11.60;;;7.47;;
76065;SDS011;64763;48.928;8.474;2023-02-28T10:27:28;10.32;;;6.07;;
76065;SDS011;64763;48.928;8.474;2023-02-28T10:29:56;11.23;;;5.80;;
76065;SDS011;64763;48.928;8.474;2023-02-28T10:32:24;10.70;;;6.22;;
76065;SDS011;64763;48.928;8.474;2023-02-28T10:37:33;12.05;;;6.47;;
76065;SDS011;64763;48.928;8.474;2023-02-28T10:40:03;12.00;;;5.97;;
76065;SDS011;64763;48.928;8.474;2023-02-28T10:45:21;9.55;;;5.68;;
76065;SDS011;64763;48.928;8.474;2023-02-28T10:48:01;13.20;;;6.35;;
76065;SDS011;64763;48.928;8.474;2023-02-28T10:50:43;11.57;;;6.30;;
76065;SDS011;64763;48.928;8.474;2023-02-28T10:55:56;9.45;;;5.82;;
76065;SDS011;64763;48.928;8.474;2023-02-28T10:58:26;12.05;;;6.20;;
76065;SDS011;64763;48.928;8.474;2023-02-28T11:00:53;11.40;;;6.65;;
76065;SDS011;64763;48.928;8.474;2023-02-28T11:03:29;9.10;;;6.05;;
76065;SDS011;64763;48.928;8.474;2023-02-28T11:05:57;11.52;;;6.97;;
76065;SDS011;64763;48.928;8.474;2023-02-28T11:08:22;12.90;;;6.88;;
76065;SDS011;64763;48.928;8.474;2023-02-28T11:10:58;14.43;;;6.63;;
76065;SDS011;64763;48.928;8.474;2023-02-28T11:13:30;12.15;;;6.93;;
76065;SDS011;64763;48.928;8.474;2023-02-28T11:15:59;11.60;;;6.43;;
76065;SDS011;64763;48.928;8.474;2023-02-28T11:18:35;13.35;;;6.88;;
76065;SDS011;64763;48.928;8.474;2023-02-28T11:21:05;10.68;;;6.70;;
76065;SDS011;64763;48.928;8.474;2023-02-28T11:23:32;12.82;;;6.25;;
76065;SDS011;64763;48.928;8.474;2023-02-28T11:25:59;12.27;;;6.53;;
76065;SDS011;64763;48.928;8.474;2023-02-28T11:28:30;11.65;;;6.50;;
76065;SDS011;64763;48.928;8.474;2023-02-28T11:31:00;11.63;;;6.60;;
76065;SDS011;64763;48.928;8.474;2023-02-28T11:33:48;9.73;;;6.28;;
76065;SDS011;64763;48.928;8.474;2023-02-28T11:36:20;12.32;;;6.32;;
76065;SDS011;64763;48.928;8.474;2023-02-28T11:38:49;10.80;;;6.55;;
76065;SDS011;64763;48.928;8.474;2023-02-28T11:50:26;12.10;;;5.95;;
76065;SDS011;64763;48.928;8.474;2023-02-28T11:55:54;11.60;;;6.25;;
76065;SDS011;64763;48.928;8.474;2023-02-28T11:58:39;11.32;;;6.20;;
76065;SDS011;64763;48.928;8.474;2023-02-28T12:01:15;12.65;;;6.68;;
76065;SDS011;64763;48.928;8.474;2023-02-28T12:04:03;11.00;;;6.32;;
76065;SDS011;64763;48.928;8.474;2023-02-28T12:06:38;10.80;;;6.57;;
76065;SDS011;64763;48.928;8.474;2023-02-28T12:19:59;11.82;;;6.85;;
76065;SDS011;64763;48.928;8.474;2023-02-28T12:28:16;10.73;;;6.80;;
76065;SDS011;64763;48.928;8.474;2023-02-28T12:33:52;11.77;;;6.72;;
76065;SDS011;64763;48.928;8.474;2023-02-28T12:36:19;11.18;;;7.10;;
76065;SDS011;64763;48.928;8.474;2023-02-28T12:41:48;9.90;;;5.53;;
76065;SDS011;64763;48.928;8.474;2023-02-28T12:44:35;10.05;;;6.53;;
76065;SDS011;64763;48.928;8.474;2023-02-28T12:47:09;10.15;;;6.85;;
76065;SDS011;64763;48.928;8.474;2023-02-28T12:49:39;10.80;;;6.53;;
76065;SDS011;64763;48.928;8.474;2023-02-28T12:52:08;12.23;;;7.03;;
76065;SDS011;64763;48.928;8.474;2023-02-28T12:59:54;12.68;;;7.38;;
76065;SDS011;64763;48.928;8.474;2023-02-28T13:10:17;10.93;;;6.55;;
76065;SDS011;64763;48.928;8.474;2023-02-28T13:12:47;13.88;;;7.07;;
76065;SDS011;64763;48.928;8.474;2023-02-28T13:15:18;10.63;;;6.13;;
76065;SDS011;64763;48.928;8.474;2023-02-28T13:17:50;11.32;;;6.65;;
76065;SDS011;64763;48.928;8.474;2023-02-28T13:20:18;12.10;;;6.85;;
76065;SDS011;64763;48.928;8.474;2023-02-28T13:22:46;11.65;;;6.75;;
76065;SDS011;64763;48.928;8.474;2023-02-28T13:27:47;12.05;;;6.88;;
76065;SDS011;64763;48.928;8.474;2023-02-28T13:35:48;12.40;;;7.05;;
76065;SDS011;64763;48.928;8.474;2023-02-28T13:38:20;21.38;;;7.93;;
76065;SDS011;64763;48.928;8.474;2023-02-28T13:40:47;12.30;;;7.07;;
76065;SDS011;64763;48.928;8.474;2023-02-28T13:43:13;11.02;;;5.88;;
76065;SDS011;64763;48.928;8.474;2023-02-28T13:46:10;9.60;;;6.18;;
76065;SDS011;64763;48.928;8.474;2023-02-28T13:48:32;12.88;;;7.07;;
76065;SDS011;64763;48.928;8.474;2023-02-28T13:50:57;10.02;;;6.85;;
76065;SDS011;64763;48.928;8.474;2023-02-28T13:53:31;10.18;;;6.80;;
76065;SDS011;64763;48.928;8.474;2023-02-28T13:56:07;9.48;;;6.82;;
76065;SDS011;64763;48.928;8.474;2023-02-28T13:58:54;15.77;;;7.78;;
76065;SDS011;64763;48.928;8.474;2023-02-28T14:06:59;10.18;;;6.40;;
76065;SDS011;64763;48.928;8.474;2023-02-28T14:09:32;10.70;;;6.93;;
76065;SDS011;64763;48.928;8.474;2023-02-28T14:12:49;10.52;;;6.97;;
76065;SDS011;64763;48.928;8.474;2023-02-28T14:15:02;12.10;;;6.63;;
76065;SDS011;64763;48.928;8.474;2023-02-28T14:17:30;11.65;;;7.22;;
76065;SDS011;64763;48.928;8.474;2023-02-28T14:19:55;11.13;;;7.03;;
76065;SDS011;64763;48.928;8.474;2023-02-28T14:27:48;11.75;;;6.40;;
76065;SDS011;64763;48.928;8.474;2023-02-28T14:33:22;14.52;;;6.95;;
76065;SDS011;64763;48.928;8.474;2023-02-28T14:38:49;13.80;;;7.13;;
76065;SDS011;64763;48.928;8.474;2023-02-28T14:41:20;12.85;;;7.55;;
76065;SDS011;64763;48.928;8.474;2023-02-28T14:43:52;11.10;;;7.25;;
76065;SDS011;64763;48.928;8.474;2023-02-28T14:46:19;11.35;;;7.35;;
76065;SDS011;64763;48.928;8.474;2023-02-28T14:48:46;11.27;;;7.05;;
76065;SDS011;64763;48.928;8.474;2023-02-28T14:51:12;12.02;;;7.35;;
76065;SDS011;64763;48.928;8.474;2023-02-28T14:53:43;10.65;;;7.20;;
76065;SDS011;64763;48.928;8.474;2023-02-28T14:56:17;12.13;;;7.50;;
76065;SDS011;64763;48.928;8.474;2023-02-28T14:58:50;11.43;;;7.55;;
76065;SDS011;64763;48.928;8.474;2023-02-28T15:01:18;12.50;;;8.20;;
76065;SDS011;64763;48.928;8.474;2023-02-28T15:03:44;12.88;;;7.60;;
76065;SDS011;64763;48.928;8.474;2023-02-28T15:06:13;10.57;;;7.25;;
76065;SDS011;64763;48.928;8.474;2023-02-28T15:08:42;10.50;;;7.55;;
76065;SDS011;64763;48.928;8.474;2023-02-28T15:11:08;13.27;;;7.85;;
76065;SDS011;64763;48.928;8.474;2023-02-28T15:16:16;12.27;;;7.97;;
76065;SDS011;64763;48.928;8.474;2023-02-28T15:18:46;10.43;;;7.30;;
76065;SDS011;64763;48.928;8.474;2023-02-28T15:21:18;13.05;;;8.30;;
76065;SDS011;64763;48.928;8.474;2023-02-28T15:23:54;13.95;;;7.88;;
76065;SDS011;64763;48.928;8.474;2023-02-28T15:26:23;11.35;;;7.78;;
76065;SDS011;64763;48.928;8.474;2023-02-28T15:28:59;11.10;;;7.10;;
76065;SDS011;64763;48.928;8.474;2023-02-28T15:31:27;12.32;;;7.20;;
76065;SDS011;64763;48.928;8.474;2023-02-28T15:33:55;10.57;;;7.13;;
76065;SDS011;64763;48.928;8.474;2023-02-28T15:36:23;12.30;;;7.63;;
76065;SDS011;64763;48.928;8.474;2023-02-28T15:38:52;14.23;;;7.43;;
76065;SDS011;64763;48.928;8.474;2023-02-28T15:41:35;13.55;;;7.80;;
76065;SDS011;64763;48.928;8.474;2023-02-28T15:49:40;12.75;;;7.65;;
76065;SDS011;64763;48.928;8.474;2023-02-28T15:52:15;11.32;;;7.50;;
76065;SDS011;64763;48.928;8.474;2023-02-28T15:54:42;12.32;;;8.13;;
76065;SDS011;64763;48.928;8.474;2023-02-28T15:57:10;11.13;;;7.28;;
76065;SDS011;64763;48.928;8.474;2023-02-28T15:59:38;12.70;;;6.78;;
76065;SDS011;64763;48.928;8.474;2023-02-28T16:04:35;11.55;;;7.50;;
76065;SDS011;64763;48.928;8.474;2023-02-28T16:07:02;12.70;;;7.13;;
76065;SDS011;64763;48.928;8.474;2023-02-28T16:09:28;12.68;;;7.13;;
76065;SDS011;64763;48.928;8.474;2023-02-28T16:11:59;12.55;;;7.53;;
76065;SDS011;64763;48.928;8.474;2023-02-28T16:14:26;12.18;;;7.65;;
76065;SDS011;64763;48.928;8.474;2023-02-28T16:16:54;11.15;;;7.32;;
76065;SDS011;64763;48.928;8.474;2023-02-28T16:19:20;11.70;;;7.10;;
76065;SDS011;64763;48.928;8.474;2023-02-28T16:21:46;12.48;;;7.68;;
76065;SDS011;64763;48.928;8.474;2023-02-28T16:24:12;14.45;;;7.82;;
76065;SDS011;64763;48.928;8.474;2023-02-28T16:26:38;14.30;;;7.57;;
76065;SDS011;64763;48.928;8.474;2023-02-28T16:29:05;11.45;;;7.43;;
76065;SDS011;64763;48.928;8.474;2023-02-28T16:31:31;11.73;;;7.97;;
76065;SDS011;64763;48.928;8.474;2023-02-28T16:33:58;18.30;;;7.30;;
76065;SDS011;64763;48.928;8.474;2023-02-28T16:36:23;13.60;;;7.43;;
76065;SDS011;64763;48.928;8.474;2023-02-28T16:38:53;14.20;;;7.30;;
76065;SDS011;64763;48.928;8.474;2023-02-28T16:41:21;12.65;;;7.32;;
76065;SDS011;64763;48.928;8.474;2023-02-28T16:43:50;14.68;;;7.35;;
76065;SDS011;64763;48.928;8.474;2023-02-28T16:46:16;11.93;;;7.15;;
76065;SDS011;64763;48.928;8.474;2023-02-28T16:48:43;14.88;;;7.60;;
76065;SDS011;64763;48.928;8.474;2023-02-28T16:51:13;13.27;;;7.70;;
76065;SDS011;64763;48.928;8.474;2023-02-28T16:53:39;14.52;;;8.02;;
76065;SDS011;64763;48.928;8.474;2023-02-28T16:56:05;15.50;;;8.30;;
76065;SDS011;64763;48.928;8.474;2023-02-28T16:58:32;12.68;;;7.18;;
76065;SDS011;64763;48.928;8.474;2023-02-28T17:01:00;17.02;;;7.88;;
76065;SDS011;64763;48.928;8.474;2023-02-28T17:03:26;11.80;;;7.57;;
76065;SDS011;64763;48.928;8.474;2023-02-28T17:05:54;16.20;;;8.10;;
76065;SDS011;64763;48.928;8.474;2023-02-28T17:08:20;15.10;;;7.22;;
76065;SDS011;64763;48.928;8.474;2023-02-28T17:10:45;11.65;;;7.60;;
76065;SDS011;64763;48.928;8.474;2023-02-28T17:13:11;13.07;;;7.53;;
76065;SDS011;64763;48.928;8.474;2023-02-28T17:15:36;15.93;;;7.63;;
76065;SDS011;64763;48.928;8.474;2023-02-28T17:18:02;13.07;;;7.63;;
76065;SDS011;64763;48.928;8.474;2023-02-28T17:20:29;11.80;;;7.20;;
76065;SDS011;64763;48.928;8.474;2023-02-28T17:22:55;14.82;;;8.02;;
76065;SDS011;64763;48.928;8.474;2023-02-28T17:25:21;14.20;;;7.25;;
76065;SDS011;64763;48.928;8.474;2023-02-28T17:27:47;13.10;;;7.70;;
76065;SDS011;64763;48.928;8.474;2023-02-28T17:30:16;15.70;;;8.77;;
76065;SDS011;64763;48.928;8.474;2023-02-28T17:32:43;13.18;;;7.57;;
76065;SDS011;64763;48.928;8.474;2023-02-28T17:35:09;13.95;;;8.02;;
76065;SDS011;64763;48.928;8.474;2023-02-28T17:37:35;13.55;;;7.35;;
76065;SDS011;64763;48.928;8.474;2023-02-28T17:40:00;14.93;;;8.18;;
76065;SDS011;64763;48.928;8.474;2023-02-28T17:42:26;13.48;;;7.45;;
76065;SDS011;64763;48.928;8.474;2023-02-28T17:44:51;12.55;;;7.93;;
76065;SDS011;64763;48.928;8.474;2023-02-28T17:47:17;16.27;;;8.57;;
76065;SDS011;64763;48.928;8.474;2023-02-28T17:49:42;16.92;;;7.65;;
76065;SDS011;64763;48.928;8.474;2023-02-28T17:52:08;14.65;;;7.60;;
76065;SDS011;64763;48.928;8.474;2023-02-28T17:54:34;16.38;;;8.88;;
76065;SDS011;64763;48.928;8.474;2023-02-28T17:56:59;13.95;;;7.65;;
76065;SDS011;64763;48.928;8.474;2023-02-28T17:59:25;14.40;;;7.55;;
76065;SDS011;64763;48.928;8.474;2023-02-28T18:01:50;15.70;;;7.15;;
76065;SDS011;64763;48.928;8.474;2023-02-28T18:04:16;14.20;;;7.43;;
76065;SDS011;64763;48.928;8.474;2023-02-28T18:06:41;13.40;;;7.45;;
76065;SDS011;64763;48.928;8.474;2023-02-28T18:09:30;16.42;;;8.48;;
76065;SDS011;64763;48.928;8.474;2023-02-28T18:11:56;14.43;;;7.68;;
76065;SDS011;64763;48.928;8.474;2023-02-28T18:14:22;14.98;;;7.97;;
76065;SDS011;64763;48.928;8.474;2023-02-28T18:16:49;11.90;;;7.07;;
76065;SDS011;64763;48.928;8.474;2023-02-28T18:19:15;13.50;;;7.43;;
76065;SDS011;64763;48.928;8.474;2023-02-28T18:21:42;13.48;;;8.10;;
76065;SDS011;64763;48.928;8.474;2023-02-28T18:24:08;16.20;;;6.93;;
76065;SDS011;64763;48.928;8.474;2023-02-28T18:26:35;15.65;;;7.57;;
76065;SDS011;64763;48.928;8.474;2023-02-28T18:29:01;16.30;;;8.45;;
76065;SDS011;64763;48.928;8.474;2023-02-28T18:31:26;18.80;;;8.70;;
76065;SDS011;64763;48.928;8.474;2023-02-28T18:33:51;12.43;;;7.95;;
76065;SDS011;64763;48.928;8.474;2023-02-28T18:36:18;12.20;;;7.93;;
76065;SDS011;64763;48.928;8.474;2023-02-28T18:38:44;12.70;;;7.40;;
76065;SDS011;64763;48.928;8.474;2023-02-28T18:41:10;14.95;;;7.70;;
76065;SDS011;64763;48.928;8.474;2023-02-28T18:43:36;13.50;;;7.35;;
76065;SDS011;64763;48.928;8.474;2023-02-28T18:46:06;15.30;;;8.77;;
76065;SDS011;64763;48.928;8.474;2023-02-28T18:48:35;14.95;;;7.65;;
76065;SDS011;64763;48.928;8.474;2023-02-28T18:51:14;14.05;;;8.70;;
76065;SDS011;64763;48.928;8.474;2023-02-28T18:53:42;14.82;;;7.22;;
76065;SDS011;64763;48.928;8.474;2023-02-28T18:56:09;13.68;;;7.88;;
76065;SDS011;64763;48.928;8.474;2023-02-28T18:58:35;14.10;;;7.63;;
76065;SDS011;64763;48.928;8.474;2023-02-28T19:01:01;15.13;;;8.25;;